createdAt,value
2019-05-25T00:01:42.055Z,100.00
2019-05-25T00:04:10.699Z,100.00
2019-05-25T00:06:39.359Z,100.00
2019-05-25T00:09:08.077Z,100.00
2019-05-25T00:11:36.715Z,100.00
2019-05-25T00:14:05.362Z,100.00
2019-05-25T00:16:34.294Z,100.00
2019-05-25T00:19:03.015Z,100.00
2019-05-25T00:21:31.789Z,100.00
2019-05-25T00:24:11.833Z,100.00
2019-05-25T00:26:31.298Z,100.00
2019-05-25T00:29:00.023Z,100.00
2019-05-25T00:31:28.740Z,100.00
2019-05-25T00:33:57.472Z,100.00
2019-05-25T00:36:26.292Z,100.00
2019-05-25T00:38:56.003Z,100.00
2019-05-25T00:41:24.662Z,100.00
2019-05-25T00:43:53.661Z,100.00
2019-05-25T00:46:22.671Z,100.00
2019-05-25T00:48:51.327Z,100.00
2019-05-25T00:51:19.959Z,100.00
2019-05-25T00:53:48.667Z,100.00
2019-05-25T00:56:17.319Z,100.00
2019-05-25T00:58:45.962Z,100.00
2019-05-25T01:01:14.691Z,100.00
2019-05-25T01:03:43.327Z,100.00
2019-05-25T01:06:12.651Z,100.00
2019-05-25T01:08:41.291Z,100.00
2019-05-25T01:11:10.354Z,100.00
2019-05-25T01:13:38.991Z,100.00
2019-05-25T01:16:07.630Z,100.00
2019-05-25T01:18:37.246Z,100.00
2019-05-25T01:21:06.302Z,100.00
2019-05-25T01:23:34.987Z,100.00
2019-05-25T01:26:03.732Z,100.00
2019-05-25T01:28:32.372Z,100.00
2019-05-25T01:31:01.111Z,100.00
2019-05-25T01:33:29.785Z,100.00
2019-05-25T01:35:58.528Z,100.00
2019-05-25T01:38:27.184Z,100.00
2019-05-25T01:40:55.889Z,100.00
2019-05-25T01:43:24.887Z,100.00
2019-05-25T01:45:53.527Z,100.00
2019-05-25T01:48:22.255Z,100.00
2019-05-25T01:50:50.954Z,100.00
2019-05-25T01:53:19.707Z,100.00
2019-05-25T01:55:48.447Z,100.00
2019-05-25T01:58:17.507Z,100.00
2019-05-25T02:00:46.212Z,100.00
2019-05-25T02:03:14.891Z,100.00
2019-05-25T02:05:43.668Z,100.00
2019-05-25T02:08:12.415Z,100.00
2019-05-25T02:10:41.156Z,100.00
2019-05-25T02:13:10.232Z,100.00
2019-05-25T02:15:38.919Z,100.00
2019-05-25T02:18:07.655Z,100.00
2019-05-25T02:20:36.358Z,100.00
2019-05-25T02:23:05.016Z,100.00
2019-05-25T02:25:33.662Z,100.00
2019-05-25T02:28:02.562Z,100.00
2019-05-25T02:30:31.233Z,100.00
2019-05-25T02:32:59.990Z,100.00
2019-05-25T02:35:28.763Z,100.00
2019-05-25T02:37:57.494Z,100.00
2019-05-25T02:40:26.232Z,100.00
2019-05-25T02:42:55.032Z,100.00
2019-05-25T02:45:23.691Z,100.00
2019-05-25T02:47:52.452Z,100.00
2019-05-25T02:50:22.628Z,100.00
2019-05-25T02:52:51.311Z,100.00
2019-05-25T02:55:33.196Z,100.00
2019-05-25T02:57:50.423Z,100.00
2019-05-25T03:00:21.377Z,100.00
2019-05-25T03:02:50.024Z,100.00
2019-05-25T03:05:19.624Z,100.00
2019-05-25T03:07:48.387Z,100.00
2019-05-25T03:10:17.337Z,100.00
2019-05-25T03:12:45.997Z,100.00
2019-05-25T03:15:14.727Z,100.00
2019-05-25T03:17:43.464Z,100.00
2019-05-25T03:20:12.175Z,100.00
2019-05-25T03:22:40.858Z,100.00
2019-05-25T03:25:09.551Z,100.00
2019-05-25T03:27:38.199Z,100.00
2019-05-25T03:30:07.431Z,100.00
2019-05-25T03:32:36.188Z,100.00
2019-05-25T03:35:05.479Z,100.00
2019-05-25T03:37:34.219Z,100.00
2019-05-25T03:40:02.895Z,100.00
2019-05-25T03:42:31.541Z,100.00
2019-05-25T03:45:00.206Z,100.00
2019-05-25T03:47:28.843Z,100.00
2019-05-25T03:49:57.500Z,100.00
2019-05-25T03:52:27.404Z,100.00
2019-05-25T03:54:56.043Z,100.00
2019-05-25T03:57:25.080Z,100.00
2019-05-25T03:59:53.764Z,100.00
2019-05-25T04:02:22.770Z,100.00
2019-05-25T04:04:51.418Z,100.00
2019-05-25T04:07:20.079Z,100.00
2019-05-25T04:09:48.773Z,100.00
2019-05-25T04:12:17.507Z,100.00
2019-05-25T04:14:46.179Z,100.00
2019-05-25T04:17:14.974Z,100.00
2019-05-25T04:19:43.623Z,100.00
2019-05-25T04:22:12.347Z,100.00
2019-05-25T04:24:41.011Z,100.00
2019-05-25T04:27:10.463Z,100.00
2019-05-25T04:29:39.236Z,100.00
2019-05-25T04:32:07.980Z,100.00
2019-05-25T04:34:37.076Z,100.00
2019-05-25T04:37:05.783Z,100.00
2019-05-25T04:39:34.458Z,100.00
2019-05-25T04:42:03.099Z,100.00
2019-05-25T04:44:31.885Z,100.00
2019-05-25T04:47:00.892Z,100.00
2019-05-25T04:49:29.570Z,100.00
2019-05-25T04:51:58.238Z,100.00
2019-05-25T04:54:27.159Z,100.00
2019-05-25T04:56:55.905Z,100.00
2019-05-25T04:59:24.600Z,100.00
2019-05-25T05:01:53.315Z,100.00
2019-05-25T05:04:21.968Z,100.00
2019-05-25T05:06:50.725Z,100.00
2019-05-25T05:09:19.370Z,100.00
2019-05-25T05:11:48.204Z,100.00
2019-05-25T05:14:16.935Z,100.00
2019-05-25T05:16:45.560Z,100.00
2019-05-25T05:19:14.207Z,100.00
2019-05-25T05:21:43.020Z,100.00
2019-05-25T05:24:11.663Z,100.00
2019-05-25T05:26:54.598Z,100.00
2019-05-25T05:29:12.272Z,100.00
2019-05-25T05:31:41.879Z,100.00
2019-05-25T05:34:10.542Z,100.00
2019-05-25T05:36:39.321Z,100.00
2019-05-25T05:39:08.328Z,100.00
2019-05-25T05:41:38.367Z,100.00
2019-05-25T05:44:07.115Z,100.00
2019-05-25T05:46:36.977Z,100.00
2019-05-25T05:49:05.646Z,100.00
2019-05-25T05:51:35.575Z,100.00
2019-05-25T05:54:04.990Z,100.00
2019-05-25T05:56:33.652Z,100.00
2019-05-25T05:59:02.436Z,100.00
2019-05-25T06:01:31.085Z,100.00
2019-05-25T06:03:59.833Z,100.00
2019-05-25T06:06:28.496Z,100.00
2019-05-25T06:08:57.144Z,100.00
2019-05-25T06:11:26.107Z,100.00
2019-05-25T06:13:54.820Z,100.00
2019-05-25T06:16:23.506Z,100.00
2019-05-25T06:18:52.509Z,100.00
2019-05-25T06:21:21.187Z,100.00
2019-05-25T06:23:49.979Z,100.00
2019-05-25T06:26:18.759Z,100.00
2019-05-25T06:28:47.514Z,100.00
2019-05-25T06:31:16.604Z,100.00
2019-05-25T06:33:45.611Z,100.00
2019-05-25T06:36:14.352Z,100.00
2019-05-25T06:38:43.087Z,100.00
2019-05-25T06:41:12.814Z,100.00
2019-05-25T06:43:41.471Z,100.00
2019-05-25T06:46:10.185Z,100.00
2019-05-25T06:48:39.131Z,100.00
2019-05-25T06:51:07.857Z,100.00
2019-05-25T06:53:36.532Z,100.00
2019-05-25T06:56:05.221Z,100.00
2019-05-25T06:58:34.939Z,100.00
2019-05-25T07:01:03.677Z,100.00
2019-05-25T07:03:32.352Z,100.00
2019-05-25T07:06:01.008Z,100.00
2019-05-25T07:08:29.786Z,100.00
2019-05-25T07:10:58.516Z,100.00
2019-05-25T07:13:28.637Z,100.00
2019-05-25T07:15:58.522Z,100.00
2019-05-25T07:18:27.468Z,100.00
2019-05-25T07:20:56.266Z,100.00
2019-05-25T07:23:24.939Z,100.00
2019-05-25T07:25:53.614Z,100.00
2019-05-25T07:28:22.919Z,100.00
2019-05-25T07:30:51.920Z,100.00
2019-05-25T07:33:20.567Z,100.00
2019-05-25T07:35:49.207Z,100.00
2019-05-25T07:38:17.835Z,100.00
2019-05-25T07:40:46.467Z,100.00
2019-05-25T07:43:15.123Z,100.00
2019-05-25T07:45:43.764Z,100.00
2019-05-25T07:48:12.411Z,100.00
2019-05-25T07:50:41.064Z,100.00
2019-05-25T07:53:09.804Z,100.00
2019-05-25T07:55:38.471Z,100.00
2019-05-25T07:58:16.463Z,100.00
2019-05-25T08:00:37.501Z,100.00
2019-05-25T08:03:06.163Z,100.00
2019-05-25T08:05:34.887Z,100.00
2019-05-25T08:08:03.992Z,100.00
2019-05-25T08:10:33.040Z,100.00
2019-05-25T08:13:01.677Z,100.00
2019-05-25T08:15:31.662Z,100.00
2019-05-25T08:18:00.658Z,100.00
2019-05-25T08:20:29.312Z,100.00
2019-05-25T08:22:57.966Z,100.00
2019-05-25T08:25:26.603Z,100.00
2019-05-25T08:27:55.462Z,100.00
2019-05-25T08:30:24.121Z,100.00
2019-05-25T08:32:52.780Z,100.00
2019-05-25T08:35:21.417Z,100.00
2019-05-25T08:37:50.346Z,100.00
2019-05-25T08:40:18.988Z,100.00
2019-05-25T08:42:47.633Z,100.00
2019-05-25T08:45:16.306Z,100.00
2019-05-25T08:47:44.956Z,100.00
2019-05-25T08:50:13.625Z,100.00
2019-05-25T08:52:42.336Z,100.00
2019-05-25T08:55:11.061Z,100.00
2019-05-25T08:57:39.699Z,100.00
2019-05-25T09:00:08.675Z,100.00
2019-05-25T09:02:37.328Z,100.00
2019-05-25T09:05:06.637Z,100.00
2019-05-25T09:07:35.591Z,100.00
2019-05-25T09:10:04.730Z,100.00
2019-05-25T09:12:33.434Z,100.00
2019-05-25T09:15:05.697Z,100.00
2019-05-25T09:17:32.447Z,100.00
2019-05-25T09:20:01.079Z,100.00
2019-05-25T09:22:29.910Z,100.00
2019-05-25T09:24:58.836Z,100.00
2019-05-25T09:27:27.470Z,100.00
2019-05-25T09:29:56.150Z,100.00
2019-05-25T09:32:24.876Z,100.00
2019-05-25T09:34:53.892Z,96.32
2019-05-25T09:37:22.526Z,91.72
2019-05-25T09:39:51.172Z,92.00
2019-05-25T09:42:19.915Z,90.31
2019-05-25T09:44:48.641Z,90.71
2019-05-25T09:47:17.559Z,86.24
2019-05-25T09:49:46.197Z,83.31
2019-05-25T09:52:14.844Z,85.51
2019-05-25T09:54:43.594Z,86.83
2019-05-25T09:57:12.233Z,83.44
2019-05-25T09:59:40.868Z,82.28
2019-05-25T10:02:09.787Z,69.44
2019-05-25T10:04:38.723Z,67.74
2019-05-25T10:07:07.369Z,61.23
2019-05-25T10:09:39.902Z,59.85
2019-05-25T10:12:06.671Z,62.30
2019-05-25T10:14:35.311Z,54.77
2019-05-25T10:17:03.975Z,53.96
2019-05-25T10:19:32.602Z,52.96
2019-05-25T10:22:01.639Z,52.63
2019-05-25T10:24:30.292Z,39.68
2019-05-25T10:26:58.932Z,43.43
2019-05-25T10:29:36.730Z,48.37
2019-05-25T10:31:57.918Z,49.87
2019-05-25T10:34:26.543Z,44.10
2019-05-25T10:36:55.232Z,41.41
2019-05-25T10:39:23.856Z,39.06
2019-05-25T10:41:53.828Z,33.81
2019-05-25T10:44:22.491Z,34.28
2019-05-25T10:46:51.126Z,30.21
2019-05-25T10:49:19.761Z,29.84
2019-05-25T10:51:48.403Z,28.58
2019-05-25T10:54:17.050Z,29.17
2019-05-25T10:56:46.345Z,28.39
2019-05-25T10:59:14.996Z,30.78
2019-05-25T11:01:43.636Z,29.26
2019-05-25T11:04:12.281Z,28.94
2019-05-25T11:06:41.998Z,29.25
2019-05-25T11:09:10.621Z,26.11
2019-05-25T11:11:39.243Z,26.43
2019-05-25T11:14:08.045Z,28.00
2019-05-25T11:16:36.681Z,26.40
2019-05-25T11:19:05.354Z,24.37
2019-05-25T11:21:34.023Z,25.48
2019-05-25T11:24:02.658Z,26.32
2019-05-25T11:26:31.285Z,26.61
2019-05-25T11:28:59.928Z,26.86
2019-05-25T11:31:28.613Z,27.18
2019-05-25T11:33:57.371Z,25.00
2019-05-25T11:36:26.045Z,27.19
2019-05-25T11:38:54.749Z,27.16
2019-05-25T11:41:23.387Z,27.70
2019-05-25T11:43:53.133Z,27.12
2019-05-25T11:46:21.769Z,25.53
2019-05-25T11:48:50.412Z,25.58
2019-05-25T11:51:19.056Z,23.66
2019-05-25T11:53:47.700Z,22.63
2019-05-25T11:56:16.329Z,22.02
2019-05-25T11:58:47.329Z,21.75
2019-05-25T12:01:15.355Z,22.43
2019-05-25T12:03:43.996Z,22.93
2019-05-25T12:06:12.636Z,22.37
2019-05-25T12:08:41.267Z,19.10
2019-05-25T12:11:11.084Z,19.11
2019-05-25T12:13:39.715Z,18.65
2019-05-25T12:16:09.467Z,17.02
2019-05-25T12:18:38.988Z,18.02
2019-05-25T12:21:07.704Z,18.60
2019-05-25T12:23:36.364Z,18.40
2019-05-25T12:26:05.427Z,19.24
2019-05-25T12:28:34.066Z,18.32
2019-05-25T12:31:02.763Z,17.88
2019-05-25T12:33:31.411Z,17.43
2019-05-25T12:36:00.126Z,17.54
2019-05-25T12:38:29.068Z,18.10
2019-05-25T12:40:57.711Z,16.83
2019-05-25T12:43:26.335Z,14.89
2019-05-25T12:45:54.959Z,15.24
2019-05-25T12:48:24.181Z,12.96
2019-05-25T12:50:52.826Z,12.64
2019-05-25T12:53:21.471Z,12.60
2019-05-25T12:55:50.457Z,13.02
2019-05-25T12:58:19.088Z,12.35
2019-05-25T13:00:56.144Z,11.37
2019-05-25T13:03:18.528Z,11.43
2019-05-25T13:05:47.154Z,10.94
2019-05-25T13:08:15.785Z,10.40
2019-05-25T13:10:45.674Z,11.43
2019-05-25T13:13:14.599Z,10.92
2019-05-25T13:15:43.232Z,11.60
2019-05-25T13:18:12.259Z,11.88
2019-05-25T13:20:40.917Z,12.23
2019-05-25T13:23:09.677Z,11.44
2019-05-25T13:25:38.363Z,12.02
2019-05-25T13:28:07.020Z,11.51
2019-05-25T13:30:35.770Z,11.92
2019-05-25T13:33:04.423Z,11.83
2019-05-25T13:35:33.087Z,12.18
2019-05-25T13:38:02.055Z,13.19
2019-05-25T13:40:30.898Z,13.10
2019-05-25T13:42:59.550Z,13.55
2019-05-25T13:45:29.356Z,13.71
2019-05-25T13:47:58.095Z,13.82
2019-05-25T13:50:26.799Z,14.35
2019-05-25T13:52:55.452Z,14.78
2019-05-25T13:55:25.019Z,14.89
2019-05-25T13:57:53.723Z,15.45
2019-05-25T14:00:22.378Z,15.16
2019-05-25T14:02:51.012Z,16.31
2019-05-25T14:05:19.742Z,17.00
2019-05-25T14:07:48.665Z,16.68
2019-05-25T14:10:17.394Z,16.91
2019-05-25T14:12:46.111Z,16.80
2019-05-25T14:15:14.834Z,15.89
2019-05-25T14:17:43.512Z,16.29
2019-05-25T14:20:12.385Z,15.27
2019-05-25T14:22:41.105Z,14.30
2019-05-25T14:25:10.185Z,14.16
2019-05-25T14:27:38.869Z,13.34
2019-05-25T14:30:07.612Z,12.50
2019-05-25T14:32:36.343Z,10.72
2019-05-25T14:35:05.191Z,10.38
2019-05-25T14:37:33.829Z,9.13
2019-05-25T14:40:02.487Z,11.64
2019-05-25T14:42:32.140Z,13.17
2019-05-25T14:45:00.793Z,11.86
2019-05-25T14:47:29.448Z,13.93
2019-05-25T14:49:58.522Z,16.86
2019-05-25T14:52:27.296Z,21.55
2019-05-25T14:54:56.016Z,24.87
2019-05-25T14:57:24.669Z,27.57
2019-05-25T14:59:53.306Z,28.58
2019-05-25T15:02:21.975Z,31.40
2019-05-25T15:04:50.678Z,34.47
2019-05-25T15:07:19.336Z,36.46
2019-05-25T15:09:48.112Z,41.14
2019-05-25T15:12:16.826Z,48.52
2019-05-25T15:14:45.500Z,56.29
2019-05-25T15:17:15.138Z,59.22
2019-05-25T15:19:43.780Z,61.58
2019-05-25T15:22:12.599Z,62.80
2019-05-25T15:24:41.304Z,68.00
2019-05-25T15:27:09.982Z,75.04
2019-05-25T15:29:39.498Z,77.63
2019-05-25T15:32:19.424Z,80.38
2019-05-25T15:34:38.564Z,80.95
2019-05-25T15:37:07.612Z,76.46
2019-05-25T15:39:36.299Z,77.63
2019-05-25T15:42:05.059Z,76.28
2019-05-25T15:44:33.731Z,74.68
2019-05-25T15:47:04.834Z,75.64
2019-05-25T15:49:33.841Z,76.49
2019-05-25T15:52:02.737Z,73.96
2019-05-25T15:54:31.539Z,71.82
2019-05-25T15:57:00.360Z,72.28
2019-05-25T15:59:29.068Z,89.01
2019-05-25T16:01:57.769Z,96.28
2019-05-25T16:04:26.432Z,95.69
2019-05-25T16:06:55.151Z,99.47
2019-05-25T16:09:24.246Z,100.00
2019-05-25T16:11:53.003Z,100.00
2019-05-25T16:14:21.757Z,100.00
2019-05-25T16:16:50.461Z,100.00
2019-05-25T16:19:19.181Z,100.00
2019-05-25T16:21:47.940Z,97.78
2019-05-25T16:24:17.326Z,89.10
2019-05-25T16:26:46.805Z,79.98
2019-05-25T16:29:15.578Z,77.91
2019-05-25T16:31:44.247Z,77.46
2019-05-25T16:34:12.900Z,75.63
2019-05-25T16:36:41.586Z,81.46
2019-05-25T16:39:10.420Z,86.28
2019-05-25T16:41:39.132Z,88.77
2019-05-25T16:44:07.937Z,89.07
2019-05-25T16:46:36.588Z,84.14
2019-05-25T16:49:05.408Z,83.94
2019-05-25T16:51:34.053Z,86.91
2019-05-25T16:54:02.719Z,85.03
2019-05-25T16:56:31.396Z,85.55
2019-05-25T16:59:00.031Z,83.28
2019-05-25T17:01:46.473Z,84.07
2019-05-25T17:03:59.056Z,78.99
2019-05-25T17:06:27.783Z,82.77
2019-05-25T17:08:56.817Z,83.84
2019-05-25T17:11:25.575Z,84.13
2019-05-25T17:13:54.228Z,86.83
2019-05-25T17:16:22.890Z,85.03
2019-05-25T17:18:51.545Z,86.63
2019-05-25T17:21:20.580Z,88.65
2019-05-25T17:23:49.408Z,90.16
2019-05-25T17:26:18.226Z,91.57
2019-05-25T17:28:47.972Z,93.53
2019-05-25T17:31:16.670Z,95.45
2019-05-25T17:33:46.658Z,98.50
2019-05-25T17:36:15.568Z,100.00
2019-05-25T17:38:44.540Z,100.00
2019-05-25T17:41:13.568Z,100.00
2019-05-25T17:43:42.216Z,100.00
2019-05-25T17:46:11.250Z,99.81
2019-05-25T17:48:39.915Z,97.67
2019-05-25T17:51:08.656Z,100.00
2019-05-25T17:53:37.405Z,100.00
2019-05-25T17:56:06.253Z,100.00
2019-05-25T17:58:34.961Z,100.00
2019-05-25T18:01:03.622Z,100.00
2019-05-25T18:03:32.284Z,100.00
2019-05-25T18:06:01.029Z,100.00
2019-05-25T18:08:29.775Z,100.00
2019-05-25T18:10:58.417Z,100.00
2019-05-25T18:14:08.428Z,100.00
2019-05-25T18:16:37.177Z,100.00
2019-05-25T18:19:05.007Z,100.00
2019-05-25T18:21:33.027Z,100.00
2019-05-25T18:24:00.873Z,100.00
2019-05-25T18:26:28.731Z,100.00
2019-05-25T18:28:56.539Z,100.00
2019-05-25T18:31:24.325Z,100.00
2019-05-25T18:33:52.412Z,100.00
2019-05-25T18:36:20.280Z,100.00
2019-05-25T18:38:48.138Z,100.00
2019-05-25T18:41:16.040Z,100.00
2019-05-25T18:43:43.864Z,100.00
2019-05-25T18:46:11.639Z,100.00
2019-05-25T18:48:39.418Z,100.00
2019-05-25T18:51:07.261Z,100.00
2019-05-25T18:53:35.042Z,100.00
2019-05-25T18:56:02.907Z,100.00
2019-05-25T18:58:30.808Z,100.00
2019-05-25T19:00:58.680Z,100.00
2019-05-25T19:03:26.498Z,100.00
2019-05-25T19:05:54.800Z,100.00
2019-05-25T19:08:22.590Z,100.00
2019-05-25T19:10:50.484Z,100.00
2019-05-25T19:13:18.272Z,100.00
2019-05-25T19:15:46.256Z,100.00
2019-05-25T19:18:14.545Z,100.00
2019-05-25T19:20:42.459Z,100.00
2019-05-25T19:23:10.675Z,100.00
2019-05-25T19:25:38.447Z,100.00
2019-05-25T19:28:06.231Z,100.00
2019-05-25T19:30:34.082Z,100.00
2019-05-25T19:33:01.839Z,100.00
2019-05-25T19:35:29.619Z,100.00
2019-05-25T19:37:57.464Z,100.00
2019-05-25T19:40:25.229Z,100.00
2019-05-25T19:42:53.000Z,100.00
2019-05-25T19:45:21.005Z,100.00
2019-05-25T19:47:48.784Z,100.00
2019-05-25T19:50:16.625Z,100.00
2019-05-25T19:52:44.462Z,100.00
2019-05-25T19:55:12.327Z,100.00
2019-05-25T19:57:40.100Z,100.00
2019-05-25T20:00:08.049Z,100.00
2019-05-25T20:02:35.889Z,100.00
2019-05-25T20:05:15.603Z,100.00
2019-05-25T20:07:33.265Z,100.00
2019-05-25T20:10:01.100Z,100.00
2019-05-25T20:12:28.994Z,100.00
2019-05-25T20:14:57.029Z,100.00
2019-05-25T20:17:24.876Z,100.00
2019-05-25T20:19:52.660Z,100.00
2019-05-25T20:22:20.699Z,100.00
2019-05-25T20:24:48.464Z,100.00
2019-05-25T20:27:16.665Z,100.00
2019-05-25T20:29:44.474Z,100.00
2019-05-25T20:32:12.251Z,100.00
2019-05-25T20:34:40.032Z,100.00
2019-05-25T20:37:07.819Z,100.00
2019-05-25T20:39:35.583Z,100.00
2019-05-25T20:42:03.475Z,100.00
2019-05-25T20:44:31.627Z,100.00
2019-05-25T20:46:59.383Z,100.00
2019-05-25T20:49:27.189Z,100.00
2019-05-25T20:51:54.969Z,100.00
2019-05-25T20:54:22.739Z,100.00
2019-05-25T20:56:50.519Z,100.00
2019-05-25T20:59:18.542Z,100.00
2019-05-25T21:01:46.353Z,100.00
2019-05-25T21:04:14.442Z,100.00
2019-05-25T21:06:42.226Z,100.00
2019-05-25T21:09:09.978Z,100.00
2019-05-25T21:11:37.776Z,100.00
2019-05-25T21:14:05.557Z,100.00
2019-05-25T21:16:33.402Z,100.00
2019-05-25T21:19:03.123Z,100.00
2019-05-25T21:21:30.792Z,100.00
2019-05-25T21:23:59.522Z,100.00
2019-05-25T21:26:27.322Z,100.00
2019-05-25T21:28:55.175Z,100.00
2019-05-25T21:31:23.989Z,100.00
2019-05-25T21:33:51.987Z,100.00
2019-05-25T21:36:19.772Z,100.00
2019-05-25T21:38:47.541Z,100.00
2019-05-25T21:41:15.327Z,100.00
2019-05-25T21:43:43.105Z,100.00
2019-05-25T21:46:10.868Z,100.00
2019-05-25T21:48:38.662Z,100.00
2019-05-25T21:51:06.443Z,100.00
2019-05-25T21:53:34.215Z,100.00
2019-05-25T21:56:02.117Z,100.00
2019-05-25T21:58:30.219Z,100.00
2019-05-25T22:00:58.120Z,100.00
2019-05-25T22:03:25.990Z,100.00
2019-05-25T22:05:53.752Z,100.00
2019-05-25T22:08:21.818Z,100.00
2019-05-25T22:10:49.611Z,100.00
2019-05-25T22:13:28.019Z,100.00
2019-05-25T22:15:46.933Z,100.00
2019-05-25T22:18:14.742Z,100.00
2019-05-25T22:20:42.504Z,100.00
2019-05-25T22:23:10.356Z,100.00
2019-05-25T22:25:38.148Z,100.00
2019-05-25T22:28:06.250Z,100.00
2019-05-25T22:30:34.030Z,100.00
2019-05-25T22:33:01.885Z,100.00
2019-05-25T22:35:29.997Z,100.00
2019-05-25T22:37:57.772Z,100.00
2019-05-25T22:40:25.588Z,100.00
2019-05-25T22:42:53.731Z,100.00
2019-05-25T22:45:22.578Z,100.00
2019-05-25T22:47:50.351Z,100.00
2019-05-25T22:50:19.495Z,100.00
2019-05-25T22:52:47.333Z,100.00
2019-05-25T22:55:15.199Z,100.00
2019-05-25T22:57:42.967Z,100.00
2019-05-25T23:00:10.998Z,100.00
2019-05-25T23:02:38.819Z,100.00
2019-05-25T23:05:07.412Z,100.00
2019-05-25T23:07:35.390Z,100.00
2019-05-25T23:10:03.255Z,100.00
2019-05-25T23:12:31.331Z,100.00
2019-05-25T23:14:59.111Z,100.00
2019-05-25T23:17:26.885Z,100.00
2019-05-25T23:19:54.665Z,100.00
2019-05-25T23:22:22.432Z,100.00
2019-05-25T23:24:50.515Z,100.00
2019-05-25T23:27:18.306Z,100.00
2019-05-25T23:29:46.082Z,100.00
2019-05-25T23:32:13.886Z,100.00
2019-05-25T23:34:41.724Z,100.00
2019-05-25T23:37:14.697Z,100.00
2019-05-25T23:39:39.374Z,100.00
2019-05-25T23:42:07.230Z,100.00
2019-05-25T23:44:35.012Z,100.00
2019-05-25T23:47:02.779Z,100.00
2019-05-25T23:49:30.570Z,100.00
2019-05-25T23:51:58.344Z,100.00
2019-05-25T23:54:26.151Z,100.00
2019-05-25T23:56:53.940Z,100.00
2019-05-25T23:59:21.866Z,100.00
